Time;durP1;ratioP1;P1;durP2;ratioP2;P2;SDS_P1;SDS_P2;PMS_P1;PMS_P2;Temp;Humidity;BMP_temperature;BMP_pressure;BME280_temperature;BME280_humidity;BME280_pressure;Samples;Min_cycle;Max_cycle;Signal;HPM_P1;HPM_P2
2021/07/18 00:00:07;;;;;;;33.90;31.27;;;20.70;88.40;;;;;;4988860;28;20994;-70
2021/07/18 00:02:34;;;;;;;35.20;32.30;;;20.60;88.60;;;;;;4987552;28;20491;-70
2021/07/18 00:05:01;;;;;;;34.07;31.50;;;20.60;88.60;;;;;;4987797;28;20477;-70
2021/07/18 00:07:28;;;;;;;33.67;31.17;;;20.50;88.60;;;;;;4993896;28;20984;-70
2021/07/18 00:09:54;;;;;;;33.67;30.97;;;20.50;88.50;;;;;;4989469;28;20462;-70
2021/07/18 00:12:21;;;;;;;34.27;31.67;;;20.50;88.70;;;;;;4992350;28;20469;-70
2021/07/18 00:14:50;;;;;;;35.37;32.47;;;20.50;88.70;;;;;;4992154;28;20458;-70
2021/07/18 00:17:17;;;;;;;34.77;32.00;;;20.50;88.60;;;;;;4993253;28;20835;-70
2021/07/18 00:19:43;;;;;;;37.00;33.87;;;20.50;88.60;;;;;;4990101;28;20468;-71
2021/07/18 00:22:10;;;;;;;35.70;32.13;;;20.50;88.50;;;;;;5004275;28;20980;-70
2021/07/18 00:24:37;;;;;;;34.43;31.73;;;20.40;88.60;;;;;;4991435;28;20963;-70
2021/07/18 00:27:05;;;;;;;33.60;31.17;;;20.40;88.70;;;;;;4992641;28;20468;-71
2021/07/18 00:29:32;;;;;;;33.87;31.20;;;20.40;88.60;;;;;;4991098;28;20934;-71
2021/07/18 00:32:00;;;;;;;35.07;32.43;;;20.30;88.50;;;;;;4992628;28;21080;-70
2021/07/18 00:34:27;;;;;;;34.83;31.93;;;20.30;88.40;;;;;;4990970;28;20552;-71
2021/07/18 00:36:54;;;;;;;33.57;31.17;;;20.30;88.50;;;;;;4992041;28;20477;-70
2021/07/18 00:39:21;;;;;;;36.07;32.80;;;20.30;88.70;;;;;;4993110;28;20476;-70
2021/07/18 00:41:47;;;;;;;33.57;30.90;;;20.30;88.70;;;;;;5000159;28;20460;-71
2021/07/18 00:44:14;;;;;;;34.07;31.17;;;20.20;88.40;;;;;;4993886;28;20454;-70
2021/07/18 00:46:41;;;;;;;33.40;30.37;;;20.30;88.00;;;;;;4991401;28;20561;-70
2021/07/18 00:49:09;;;;;;;31.57;29.03;;;20.30;87.90;;;;;;4990568;28;20464;-70
2021/07/18 00:51:36;;;;;;;31.50;29.07;;;20.20;87.90;;;;;;4992010;28;20480;-69
2021/07/18 00:54:03;;;;;;;33.03;30.00;;;20.20;87.70;;;;;;4991411;28;20536;-70
2021/07/18 00:56:30;;;;;;;30.97;28.70;;;20.20;87.60;;;;;;4991417;28;20486;-70
2021/07/18 00:58:58;;;;;;;33.23;30.77;;;20.10;87.70;;;;;;4995900;28;20462;-70
2021/07/18 01:01:26;;;;;;;31.90;29.60;;;20.10;88.10;;;;;;4990536;28;20468;-70
2021/07/18 01:03:53;;;;;;;31.67;29.43;;;20.00;88.10;;;;;;4991724;28;20491;-70
2021/07/18 01:06:21;;;;;;;33.33;30.43;;;19.90;88.20;;;;;;4990503;28;20487;-70
2021/07/18 01:08:49;;;;;;;31.17;28.73;;;19.90;88.40;;;;;;4991709;28;21199;-70
2021/07/18 01:11:15;;;;;;;30.93;28.70;;;19.90;88.10;;;;;;4990842;28;21039;-70
2021/07/18 01:13:42;;;;;;;29.77;27.80;;;19.90;88.40;;;;;;4990780;28;21050;-70
2021/07/18 01:16:10;;;;;;;32.27;29.73;;;19.90;87.50;;;;;;4990400;28;20485;-73
2021/07/18 01:18:39;;;;;;;33.77;31.17;;;19.80;87.30;;;;;;4991679;28;20569;-70
2021/07/18 01:21:06;;;;;;;33.30;30.87;;;19.70;88.80;;;;;;4990709;28;21276;-70
2021/07/18 01:23:37;;;;;;;30.90;28.50;;;19.70;89.00;;;;;;4990480;28;20481;-70
2021/07/18 01:26:04;;;;;;;30.87;28.20;;;19.70;89.10;;;;;;4989696;28;20489;-70
2021/07/18 01:28:32;;;;;;;29.97;27.73;;;19.70;88.50;;;;;;4988664;28;20461;-70
2021/07/18 01:30:59;;;;;;;30.27;27.80;;;19.60;87.90;;;;;;4987425;28;21257;-70
2021/07/18 01:33:26;;;;;;;30.30;27.80;;;19.60;87.30;;;;;;4990467;28;20468;-70
2021/07/18 01:35:53;;;;;;;30.40;28.00;;;19.70;86.60;;;;;;4990293;28;20836;-70
2021/07/18 01:38:20;;;;;;;30.70;28.20;;;19.70;85.60;;;;;;4991670;28;20466;-70
2021/07/18 01:40:48;;;;;;;30.53;28.63;;;19.60;85.80;;;;;;4990458;28;20461;-70
2021/07/18 01:43:16;;;;;;;29.87;27.33;;;19.60;86.90;;;;;;4991012;28;20481;-70
2021/07/18 01:45:43;;;;;;;29.90;27.53;;;19.60;86.70;;;;;;4989412;28;20473;-70
2021/07/18 01:48:10;;;;;;;29.10;27.10;;;19.50;85.90;;;;;;4991017;28;20520;-70
2021/07/18 01:50:37;;;;;;;28.80;26.70;;;19.50;85.70;;;;;;4989659;28;20466;-70
2021/07/18 01:53:05;;;;;;;28.53;26.73;;;19.50;84.70;;;;;;4990678;28;20540;-70
2021/07/18 01:55:33;;;;;;;29.80;27.80;;;19.50;84.70;;;;;;4988687;28;21149;-70
2021/07/18 01:58:02;;;;;;;30.03;27.93;;;19.50;84.60;;;;;;4994009;28;20544;-70
2021/07/18 02:00:28;;;;;;;28.60;26.80;;;19.40;84.80;;;;;;4993008;28;20461;-70
2021/07/18 02:02:55;;;;;;;29.13;27.13;;;19.40;84.90;;;;;;4990789;28;20486;-70
2021/07/18 02:05:23;;;;;;;29.17;27.20;;;19.40;85.10;;;;;;4990116;28;20485;-70
2021/07/18 02:07:51;;;;;;;28.70;26.70;;;19.40;84.60;;;;;;4989944;28;20489;-70
2021/07/18 02:10:19;;;;;;;28.43;26.73;;;19.30;83.80;;;;;;4989548;28;20549;-70
2021/07/18 02:12:47;;;;;;;29.70;27.70;;;19.30;83.60;;;;;;4991024;28;20442;-70
2021/07/18 02:15:19;;;;;;;29.23;27.37;;;19.30;84.10;;;;;;4989073;28;20572;-70
2021/07/18 02:17:46;;;;;;;29.80;27.90;;;19.30;84.80;;;;;;4984912;28;21029;-70
2021/07/18 02:20:16;;;;;;;30.70;28.60;;;19.20;85.80;;;;;;4989342;28;20454;-70
2021/07/18 02:22:46;;;;;;;30.17;27.93;;;19.20;86.60;;;;;;4990001;28;20488;-70
2021/07/18 02:25:14;;;;;;;30.03;27.97;;;19.10;87.30;;;;;;4988661;28;20497;-70
2021/07/18 02:27:42;;;;;;;28.97;26.87;;;19.00;87.40;;;;;;4990093;28;20462;-70
2021/07/18 02:30:11;;;;;;;31.33;29.03;;;18.90;87.80;;;;;;4989451;28;20458;-70
2021/07/18 02:32:41;;;;;;;29.43;27.43;;;18.80;88.00;;;;;;4989866;28;20461;-70
2021/07/18 02:35:11;;;;;;;30.33;28.23;;;18.80;88.30;;;;;;4989593;28;21246;-70
2021/07/18 02:37:39;;;;;;;25.60;24.00;;;18.70;88.60;;;;;;4988843;28;20454;-70
2021/07/18 02:40:07;;;;;;;27.47;25.67;;;18.70;87.90;;;;;;4988517;28;20466;-70
2021/07/18 02:42:34;;;;;;;28.10;25.67;;;18.70;86.20;;;;;;4989839;28;20940;-70
2021/07/18 02:45:01;;;;;;;27.60;25.63;;;18.60;86.00;;;;;;4989199;28;20478;-70
2021/07/18 02:47:27;;;;;;;27.90;26.10;;;18.60;86.00;;;;;;4988602;28;20468;-70
2021/07/18 02:49:56;;;;;;;25.70;24.10;;;18.60;86.60;;;;;;4989244;28;20462;-70
2021/07/18 02:52:23;;;;;;;26.83;25.13;;;18.60;86.10;;;;;;4990167;28;20490;-70
2021/07/18 02:54:50;;;;;;;28.20;25.87;;;18.60;85.50;;;;;;4984919;28;20556;-70
2021/07/18 02:57:17;;;;;;;28.70;26.87;;;18.50;85.40;;;;;;4992926;28;20464;-70
2021/07/18 02:59:44;;;;;;;29.03;26.83;;;18.50;86.50;;;;;;4988361;28;20464;-70
2021/07/18 03:02:11;;;;;;;27.97;26.10;;;18.50;87.40;;;;;;4989151;28;20912;-70
2021/07/18 03:04:38;;;;;;;27.83;25.80;;;18.50;87.60;;;;;;4989086;28;20481;-70
2021/07/18 03:07:06;;;;;;;28.70;26.50;;;18.40;88.00;;;;;;4989075;28;20454;-70
2021/07/18 03:09:33;;;;;;;27.50;25.37;;;18.40;88.30;;;;;;4988570;28;20472;-70
2021/07/18 03:12:01;;;;;;;28.57;26.37;;;18.30;88.70;;;;;;4988424;28;21233;-70
2021/07/18 03:14:28;;;;;;;28.10;26.30;;;18.20;88.80;;;;;;4988708;28;20457;-70
2021/07/18 03:16:55;;;;;;;27.33;25.23;;;18.20;88.70;;;;;;4990458;28;20535;-70
2021/07/18 03:19:22;;;;;;;26.77;24.90;;;18.10;87.80;;;;;;4987897;28;20457;-70
2021/07/18 03:21:49;;;;;;;25.80;23.90;;;18.10;88.10;;;;;;4989704;28;20873;-70
2021/07/18 03:24:17;;;;;;;27.50;25.90;;;18.10;87.20;;;;;;4987432;28;20494;-70
2021/07/18 03:26:44;;;;;;;27.97;25.93;;;18.10;86.60;;;;;;4989389;28;20514;-70
2021/07/18 03:29:11;;;;;;;27.30;25.30;;;18.20;86.60;;;;;;4988495;28;20461;-70
2021/07/18 03:31:38;;;;;;;26.10;24.60;;;18.20;86.70;;;;;;4989767;28;20453;-70
2021/07/18 03:34:05;;;;;;;26.23;24.30;;;18.20;86.30;;;;;;4988598;28;20450;-70
2021/07/18 03:36:32;;;;;;;26.30;24.60;;;18.20;85.50;;;;;;4988676;28;20488;-70
2021/07/18 03:38:59;;;;;;;28.00;26.20;;;18.30;85.20;;;;;;4990119;28;20943;-70
2021/07/18 03:41:27;;;;;;;26.23;24.57;;;18.30;85.10;;;;;;4987864;28;20808;-70
2021/07/18 03:43:54;;;;;;;26.93;25.20;;;18.20;85.10;;;;;;4988513;28;20554;-70
2021/07/18 03:46:21;;;;;;;26.30;24.60;;;18.20;85.00;;;;;;4989704;28;20493;-70
2021/07/18 03:48:48;;;;;;;25.67;24.07;;;18.30;85.10;;;;;;4991956;28;20453;-70
2021/07/18 03:51:15;;;;;;;26.80;25.10;;;18.30;84.60;;;;;;4992353;28;20453;-70
2021/07/18 03:53:42;;;;;;;26.83;25.03;;;18.40;84.30;;;;;;4991965;28;20800;-70
2021/07/18 03:56:09;;;;;;;27.27;25.50;;;18.40;84.30;;;;;;4991929;28;20484;-70
2021/07/18 03:58:37;;;;;;;26.37;24.80;;;18.40;84.40;;;;;;4998599;28;20458;-70
2021/07/18 04:01:09;;;;;;;26.90;25.20;;;18.40;84.50;;;;;;4992213;28;20465;-70
2021/07/18 04:03:36;;;;;;;26.60;24.80;;;18.50;84.50;;;;;;4991744;28;21096;-70
2021/07/18 04:06:03;;;;;;;27.47;25.43;;;18.50;84.50;;;;;;4991821;28;20484;-70
2021/07/18 04:08:31;;;;;;;26.70;24.73;;;18.50;84.40;;;;;;4992562;28;20468;-69
2021/07/18 04:10:58;;;;;;;26.47;24.87;;;18.60;83.90;;;;;;4991678;28;21038;-70
2021/07/18 04:13:26;;;;;;;25.67;24.17;;;18.60;83.70;;;;;;4991108;28;20484;-70
2021/07/18 04:15:54;;;;;;;27.07;25.37;;;18.70;82.50;;;;;;4990575;28;20492;-70
2021/07/18 04:18:21;;;;;;;26.07;24.43;;;18.80;82.20;;;;;;4992596;28;20974;-70
2021/07/18 04:20:48;;;;;;;26.60;24.90;;;18.90;81.30;;;;;;4991687;28;20489;-70
2021/07/18 04:23:16;;;;;;;26.87;25.07;;;18.90;80.10;;;;;;4991405;28;20461;-70
2021/07/18 04:25:43;;;;;;;26.90;25.17;;;19.00;78.70;;;;;;4991771;28;20517;-70
2021/07/18 04:28:11;;;;;;;27.77;25.87;;;19.10;78.80;;;;;;4992223;28;21196;-71
2021/07/18 04:30:38;;;;;;;28.20;26.40;;;19.20;79.50;;;;;;4992459;28;20545;-70
2021/07/18 04:33:07;;;;;;;27.90;25.93;;;19.20;79.70;;;;;;4993515;28;20461;-70
2021/07/18 04:35:34;;;;;;;26.77;24.87;;;19.30;79.30;;;;;;4991921;28;20474;-70
2021/07/18 04:38:03;;;;;;;26.67;25.03;;;19.40;78.80;;;;;;4995118;28;20449;-70
2021/07/18 04:40:30;;;;;;;26.97;25.20;;;19.40;78.50;;;;;;4991170;28;21003;-70
2021/07/18 04:42:57;;;;;;;27.40;25.80;;;19.40;78.70;;;;;;4991635;28;20457;-70
2021/07/18 04:45:24;;;;;;;27.40;25.57;;;19.40;78.70;;;;;;4990362;28;21195;-70
2021/07/18 04:47:53;;;;;;;26.90;25.40;;;19.50;78.90;;;;;;4991986;28;20457;-70
2021/07/18 04:50:23;;;;;;;29.13;26.83;;;19.50;78.80;;;;;;4990969;28;20464;-70
2021/07/18 04:52:50;;;;;;;34.37;30.53;;;19.60;78.30;;;;;;4992487;28;20489;-70
2021/07/18 04:55:18;;;;;;;36.73;32.90;;;19.60;78.30;;;;;;4989624;28;20498;-71
2021/07/18 04:57:45;;;;;;;31.27;28.60;;;19.60;77.20;;;;;;4991860;28;20538;-70
2021/07/18 05:00:15;;;;;;;27.37;25.87;;;19.60;77.40;;;;;;4989259;28;23639;-71
2021/07/18 05:02:42;;;;;;;27.37;25.63;;;19.70;77.40;;;;;;4984813;28;20477;-71
2021/07/18 05:05:10;;;;;;;27.73;25.77;;;19.80;77.20;;;;;;4989814;28;20485;-72
2021/07/18 05:07:49;;;;;;;27.70;25.90;;;19.80;76.90;;;;;;4992129;28;20832;-71
2021/07/18 05:10:18;;;;;;;27.80;25.80;;;19.80;76.90;;;;;;4989652;28;20473;-70
2021/07/18 05:12:45;;;;;;;29.07;27.07;;;19.80;76.80;;;;;;4991685;28;20477;-70
2021/07/18 05:15:12;;;;;;;27.17;25.40;;;19.90;77.00;;;;;;4990480;28;21023;-70
2021/07/18 05:17:40;;;;;;;27.00;25.50;;;20.00;77.20;;;;;;4991022;28;20469;-70
2021/07/18 05:20:07;;;;;;;26.90;25.40;;;20.00;76.90;;;;;;4989785;28;20561;-70
2021/07/18 05:22:34;;;;;;;26.93;25.30;;;20.10;76.10;;;;;;4990717;28;20458;-70
2021/07/18 05:25:05;;;;;;;27.17;25.63;;;20.10;72.90;;;;;;4988939;28;20485;-70
2021/07/18 05:27:32;;;;;;;27.13;25.60;;;20.10;72.90;;;;;;4991506;28;20458;-70
2021/07/18 05:29:59;;;;;;;27.20;25.70;;;20.10;73.00;;;;;;4989132;28;20461;-70
2021/07/18 05:32:26;;;;;;;27.53;25.93;;;20.20;72.70;;;;;;4990361;28;20820;-70
2021/07/18 05:34:53;;;;;;;26.90;25.40;;;20.20;72.30;;;;;;4990098;28;20454;-70
2021/07/18 05:37:20;;;;;;;27.23;25.63;;;20.10;71.20;;;;;;4993134;28;20458;-70
2021/07/18 05:39:46;;;;;;;26.90;25.17;;;20.20;71.10;;;;;;4993702;28;21090;-70
2021/07/18 05:42:15;;;;;;;27.67;25.80;;;20.10;71.20;;;;;;4990775;28;21209;-70
2021/07/18 05:44:42;;;;;;;27.60;26.00;;;20.10;71.20;;;;;;4993987;28;20481;-70
2021/07/18 05:47:09;;;;;;;27.80;26.30;;;20.20;71.30;;;;;;4991189;28;20457;-70
2021/07/18 05:49:37;;;;;;;27.20;25.60;;;20.00;71.70;;;;;;4989841;28;20461;-70
2021/07/18 05:52:05;;;;;;;26.67;25.17;;;20.00;71.90;;;;;;4988968;28;20458;-70
2021/07/18 05:54:32;;;;;;;27.90;26.00;;;20.10;71.60;;;;;;4989522;28;20449;-70
2021/07/18 05:56:59;;;;;;;27.37;25.70;;;19.90;71.40;;;;;;4993236;28;20487;-70
2021/07/18 05:59:28;;;;;;;27.57;25.90;;;19.90;71.20;;;;;;4988929;28;20458;-70
2021/07/18 06:01:54;;;;;;;27.97;26.37;;;19.70;71.90;;;;;;4989958;28;20496;-70
2021/07/18 06:04:21;;;;;;;27.63;25.97;;;19.80;71.80;;;;;;4989659;28;23092;-70
2021/07/18 06:06:48;;;;;;;27.87;26.17;;;19.60;71.20;;;;;;4991001;28;20484;-70
2021/07/18 06:09:15;;;;;;;27.27;25.67;;;19.40;72.30;;;;;;4988197;28;20484;-70
2021/07/18 06:11:42;;;;;;;27.07;25.47;;;19.50;72.00;;;;;;4989654;28;21038;-70
2021/07/18 06:14:09;;;;;;;27.60;25.90;;;19.80;71.40;;;;;;4994115;28;20449;-70
2021/07/18 06:16:37;;;;;;;27.10;25.57;;;19.90;70.60;;;;;;4990322;28;20490;-70
2021/07/18 06:19:04;;;;;;;27.50;25.90;;;20.00;70.10;;;;;;4989461;28;20952;-70
2021/07/18 06:21:31;;;;;;;25.97;24.57;;;20.10;69.90;;;;;;4989809;28;20458;-70
2021/07/18 06:23:58;;;;;;;26.43;24.73;;;20.20;69.90;;;;;;4989891;28;20573;-70
2021/07/18 06:26:25;;;;;;;26.23;24.53;;;20.00;70.00;;;;;;4989304;28;20491;-70
2021/07/18 06:28:52;;;;;;;26.53;24.90;;;19.90;70.40;;;;;;4989782;28;20466;-70
2021/07/18 06:31:19;;;;;;;26.80;25.20;;;19.80;70.90;;;;;;4988964;28;21028;-70
2021/07/18 06:33:47;;;;;;;26.07;24.60;;;19.70;71.10;;;;;;4989531;28;20969;-70
2021/07/18 06:36:14;;;;;;;25.43;24.03;;;19.80;70.90;;;;;;4989618;28;21255;-70
2021/07/18 06:38:41;;;;;;;25.67;24.27;;;19.60;71.40;;;;;;4988375;28;20468;-70
2021/07/18 06:41:08;;;;;;;26.00;24.50;;;19.50;72.20;;;;;;4989005;28;20461;-70
2021/07/18 06:43:35;;;;;;;25.30;23.80;;;19.60;72.00;;;;;;4991684;28;20465;-70
2021/07/18 06:46:02;;;;;;;28.07;26.47;;;19.60;71.70;;;;;;4991299;28;20497;-70
2021/07/18 06:48:30;;;;;;;26.27;24.77;;;19.40;72.10;;;;;;4989817;28;20454;-70
2021/07/18 06:50:58;;;;;;;26.27;24.67;;;19.30;73.00;;;;;;4988059;28;20456;-70
2021/07/18 06:53:25;;;;;;;26.83;25.33;;;19.60;72.70;;;;;;4989719;28;20457;-70
2021/07/18 06:55:52;;;;;;;26.47;24.90;;;19.70;72.00;;;;;;4988505;28;20478;-70
2021/07/18 06:58:19;;;;;;;27.60;25.93;;;19.90;71.30;;;;;;4996856;28;20516;-70
2021/07/18 07:00:45;;;;;;;25.70;24.20;;;20.00;70.80;;;;;;4989008;28;20490;-70
2021/07/18 07:03:12;;;;;;;25.83;24.53;;;19.80;71.10;;;;;;4989312;28;20453;-70
2021/07/18 07:05:40;;;;;;;26.33;24.83;;;19.70;71.70;;;;;;4988957;28;20496;-70
2021/07/18 07:08:08;;;;;;;26.63;24.90;;;19.80;71.30;;;;;;4989045;28;20550;-69
2021/07/18 07:10:36;;;;;;;26.40;24.60;;;19.80;71.70;;;;;;4985060;28;20470;-69
2021/07/18 07:13:03;;;;;;;26.03;24.53;;;19.80;72.00;;;;;;4988648;28;20457;-69
2021/07/18 07:15:30;;;;;;;26.80;25.10;;;19.80;72.20;;;;;;4987221;28;20488;-69
2021/07/18 07:17:58;;;;;;;26.27;24.87;;;20.00;72.00;;;;;;4988118;28;21331;-70
2021/07/18 07:20:25;;;;;;;26.27;24.57;;;20.10;71.10;;;;;;4988784;28;20461;-69
2021/07/18 07:22:52;;;;;;;26.23;24.93;;;20.10;71.10;;;;;;4989353;28;20894;-70
2021/07/18 07:25:20;;;;;;;26.87;25.37;;;20.10;71.20;;;;;;4993589;28;20485;-69
2021/07/18 07:27:47;;;;;;;26.80;24.97;;;20.30;70.80;;;;;;4991703;28;20456;-69
2021/07/18 07:30:16;;;;;;;26.83;25.13;;;20.60;70.30;;;;;;4991418;28;20547;-70
2021/07/18 07:32:43;;;;;;;26.33;24.93;;;20.70;70.10;;;;;;4991473;28;20450;-70
2021/07/18 07:35:12;;;;;;;26.60;25.10;;;20.70;70.00;;;;;;4991454;28;20477;-70
2021/07/18 07:37:40;;;;;;;26.87;25.17;;;20.60;70.30;;;;;;4992913;28;20465;-70
2021/07/18 07:40:08;;;;;;;27.00;25.50;;;20.60;70.30;;;;;;4985442;28;20481;-70
2021/07/18 07:42:37;;;;;;;27.60;25.57;;;20.50;70.50;;;;;;4991734;28;20449;-70
2021/07/18 07:45:04;;;;;;;28.17;25.90;;;20.40;70.70;;;;;;4991381;28;20488;-69
2021/07/18 07:47:31;;;;;;;29.50;27.67;;;20.50;70.90;;;;;;4990573;28;20469;-70
2021/07/18 07:49:58;;;;;;;26.50;25.10;;;20.70;70.70;;;;;;4987000;28;20476;-69
2021/07/18 07:52:25;;;;;;;27.20;25.70;;;20.90;69.90;;;;;;4991720;28;20547;-70
2021/07/18 07:54:52;;;;;;;29.07;27.10;;;20.90;70.40;;;;;;4988730;28;20458;-69
2021/07/18 07:57:19;;;;;;;26.43;24.93;;;21.00;69.80;;;;;;4989499;28;20462;-69
2021/07/18 07:59:47;;;;;;;26.87;25.10;;;21.20;69.30;;;;;;4990907;28;20488;-69
2021/07/18 08:02:14;;;;;;;28.03;26.40;;;21.20;69.30;;;;;;4994626;28;20457;-70
2021/07/18 08:04:41;;;;;;;27.73;26.03;;;21.20;69.50;;;;;;4990458;28;20481;-70
2021/07/18 08:07:08;;;;;;;27.53;25.90;;;21.10;70.20;;;;;;4992405;28;20561;-70
2021/07/18 08:09:34;;;;;;;26.43;25.03;;;21.30;69.40;;;;;;4990299;28;20489;-69
2021/07/18 08:12:02;;;;;;;26.27;24.80;;;21.30;69.40;;;;;;4989727;28;20469;-69
2021/07/18 08:14:28;;;;;;;26.70;25.10;;;21.40;69.30;;;;;;4989716;28;20685;-71
2021/07/18 08:16:57;;;;;;;29.37;27.67;;;21.50;69.20;;;;;;4990058;28;20524;-70
2021/07/18 08:19:24;;;;;;;27.17;25.53;;;21.60;69.10;;;;;;4988026;28;20537;-72
2021/07/18 08:21:51;;;;;;;27.47;25.90;;;21.70;68.80;;;;;;4990837;28;20465;-73
2021/07/18 08:24:17;;;;;;;26.40;24.80;;;21.80;69.40;;;;;;4990480;28;20481;-70
2021/07/18 08:26:44;;;;;;;27.47;25.70;;;21.90;68.80;;;;;;4990429;28;20513;-72
2021/07/18 08:29:11;;;;;;;28.87;26.67;;;22.10;67.60;;;;;;4990047;28;20465;-72
2021/07/18 08:31:38;;;;;;;26.80;25.17;;;22.00;68.10;;;;;;4985683;28;20504;-72
2021/07/18 08:34:07;;;;;;;26.27;24.77;;;21.90;68.00;;;;;;4989122;28;20465;-72
2021/07/18 08:36:34;;;;;;;28.07;26.40;;;22.00;68.30;;;;;;4990249;28;20493;-72
2021/07/18 08:39:02;;;;;;;27.10;25.50;;;21.90;68.50;;;;;;4991944;28;20553;-71
2021/07/18 08:41:29;;;;;;;27.30;25.50;;;22.00;68.70;;;;;;4991285;28;20475;-71
2021/07/18 08:43:56;;;;;;;27.70;26.03;;;22.00;68.20;;;;;;4990345;28;20489;-69
2021/07/18 08:46:24;;;;;;;28.90;26.80;;;22.00;68.70;;;;;;4987319;28;20482;-71
2021/07/18 08:48:50;;;;;;;29.00;27.00;;;22.00;68.90;;;;;;4990603;28;20453;-71
2021/07/18 08:51:19;;;;;;;26.77;25.13;;;22.20;68.50;;;;;;4988651;28;20466;-72
2021/07/18 08:53:51;;;;;;;28.97;27.17;;;22.40;67.50;;;;;;4989434;28;20458;-72
2021/07/18 08:56:18;;;;;;;28.20;26.60;;;22.30;67.50;;;;;;4987358;28;21022;-72
2021/07/18 08:58:45;;;;;;;28.07;26.47;;;21.90;68.70;;;;;;4988894;28;20484;-72
2021/07/18 09:01:13;;;;;;;27.50;25.80;;;21.80;68.70;;;;;;4989268;28;20465;-71
2021/07/18 09:03:40;;;;;;;34.90;32.37;;;21.80;69.20;;;;;;4989805;28;20824;-72
2021/07/18 09:06:09;;;;;;;31.67;29.50;;;22.00;68.70;;;;;;4989818;28;20485;-69
2021/07/18 09:08:47;;;;;;;29.87;27.93;;;22.10;68.70;;;;;;4982520;28;20674;-69
2021/07/18 09:11:23;;;;;;;27.10;25.40;;;22.30;68.20;;;;;;4989417;28;20824;-70
2021/07/18 09:14:01;;;;;;;27.23;25.37;;;22.40;67.90;;;;;;4988764;28;20450;-69
2021/07/18 09:16:30;;;;;;;28.97;27.07;;;22.20;68.70;;;;;;4989818;28;20475;-69
2021/07/18 09:19:17;;;;;;;27.70;25.97;;;22.50;68.10;;;;;;4990175;28;20462;-69
2021/07/18 09:21:51;;;;;;;28.13;26.13;;;22.70;67.80;;;;;;4987732;28;20454;-70
2021/07/18 09:24:22;;;;;;;28.10;26.13;;;22.70;67.30;;;;;;4989289;28;20611;-69
2021/07/18 09:27:07;;;;;;;27.80;26.00;;;22.80;67.00;;;;;;4989665;28;21057;-69
2021/07/18 09:29:34;;;;;;;27.93;26.03;;;23.00;66.60;;;;;;4986654;28;20465;-69
2021/07/18 09:32:07;;;;;;;27.00;25.40;;;23.00;66.50;;;;;;4990761;28;20457;-69
2021/07/18 09:34:36;;;;;;;28.70;26.90;;;23.00;66.70;;;;;;4989326;28;20477;-69
2021/07/18 09:37:06;;;;;;;27.90;26.20;;;23.00;67.10;;;;;;4989753;28;20453;-69
2021/07/18 09:39:37;;;;;;;28.40;26.83;;;23.10;67.20;;;;;;4980259;28;20450;-69
2021/07/18 09:42:04;;;;;;;27.07;25.57;;;23.30;66.40;;;;;;4988491;28;20549;-69
2021/07/18 09:44:41;;;;;;;28.83;26.80;;;23.50;65.40;;;;;;4989137;28;20539;-69
2021/07/18 09:47:09;;;;;;;28.00;26.20;;;23.40;65.30;;;;;;4990830;28;20449;-69
2021/07/18 09:49:37;;;;;;;29.20;27.60;;;23.50;65.90;;;;;;4989909;28;20512;-70
2021/07/18 09:52:19;;;;;;;26.93;25.40;;;23.60;65.60;;;;;;4986958;28;20462;-69
2021/07/18 09:54:49;;;;;;;28.50;26.70;;;23.40;66.00;;;;;;4986283;28;20870;-69
2021/07/18 09:57:33;;;;;;;26.37;24.87;;;23.20;66.30;;;;;;4990018;28;20827;-69
2021/07/18 10:00:01;;;;;;;27.50;25.83;;;23.00;67.10;;;;;;4990001;28;20462;-77
2021/07/18 10:02:29;;;;;;;28.37;26.60;;;22.90;68.10;;;;;;4988064;28;21100;-70
2021/07/18 10:04:57;;;;;;;26.80;25.20;;;23.10;67.30;;;;;;4989376;28;21014;-71
2021/07/18 10:07:33;;;;;;;27.50;25.70;;;23.30;67.00;;;;;;4988572;28;20462;-70
2021/07/18 10:10:02;;;;;;;28.30;26.50;;;23.40;66.70;;;;;;4988960;28;20473;-70
2021/07/18 10:12:30;;;;;;;27.67;25.60;;;23.30;66.20;;;;;;4990870;28;20464;-70
2021/07/18 10:14:59;;;;;;;26.70;25.30;;;23.30;66.50;;;;;;4989339;28;20975;-69
2021/07/18 10:17:28;;;;;;;28.17;26.43;;;23.30;66.10;;;;;;4989528;28;20464;-69
2021/07/18 10:19:56;;;;;;;27.87;26.20;;;23.30;65.30;;;;;;4989657;28;20571;-70
2021/07/18 10:22:24;;;;;;;29.00;27.07;;;23.60;64.60;;;;;;4990132;28;20807;-69
2021/07/18 10:24:54;;;;;;;27.70;26.00;;;23.60;65.00;;;;;;4989233;28;20501;-70
2021/07/18 10:27:23;;;;;;;27.40;25.90;;;23.50;65.60;;;;;;4989910;28;20568;-69
2021/07/18 10:29:53;;;;;;;28.13;26.23;;;23.60;65.50;;;;;;4988523;28;20462;-70
2021/07/18 10:32:22;;;;;;;28.00;26.30;;;23.70;64.80;;;;;;4990584;28;20461;-70
2021/07/18 10:34:53;;;;;;;27.27;25.40;;;23.90;64.70;;;;;;4988528;28;20481;-70
2021/07/18 10:37:20;;;;;;;26.70;25.30;;;24.00;64.40;;;;;;4992144;28;20454;-70
2021/07/18 10:39:47;;;;;;;27.93;26.13;;;24.10;64.80;;;;;;4989590;28;20464;-69
2021/07/18 10:42:17;;;;;;;27.50;25.40;;;24.00;64.90;;;;;;4989790;28;20497;-70
2021/07/18 10:44:48;;;;;;;28.03;26.53;;;23.80;65.40;;;;;;4986365;28;20956;-70
2021/07/18 10:47:16;;;;;;;28.57;26.60;;;24.00;65.80;;;;;;4989170;28;20481;-69
2021/07/18 10:49:58;;;;;;;27.37;25.60;;;24.20;63.90;;;;;;4988336;28;20462;-70
2021/07/18 10:52:31;;;;;;;28.70;26.90;;;24.10;64.20;;;;;;5000153;28;20974;-69
2021/07/18 10:54:58;;;;;;;29.03;27.17;;;23.90;63.60;;;;;;4987533;28;20481;-69
2021/07/18 10:57:32;;;;;;;29.30;27.10;;;24.10;63.50;;;;;;4990417;28;21024;-70
2021/07/18 11:00:24;;;;;;;27.20;25.70;;;24.20;63.20;;;;;;4987360;28;21362;-69
2021/07/18 11:03:05;;;;;;;26.60;25.10;;;23.80;64.50;;;;;;4987292;28;20462;-70
2021/07/18 11:05:43;;;;;;;28.17;26.43;;;23.90;64.00;;;;;;4988545;28;20493;-70
2021/07/18 11:08:11;;;;;;;27.23;25.70;;;24.10;64.10;;;;;;4983045;28;20572;-69
2021/07/18 11:10:48;;;;;;;27.77;26.00;;;24.30;63.30;;;;;;4988453;28;20462;-69
2021/07/18 11:13:15;;;;;;;28.33;26.53;;;24.30;62.70;;;;;;4988605;28;20465;-70
2021/07/18 11:15:44;;;;;;;29.30;27.33;;;24.30;63.60;;;;;;4986978;28;20487;-69
2021/07/18 11:18:13;;;;;;;28.17;26.20;;;24.60;62.50;;;;;;4988868;28;21022;-69
2021/07/18 11:20:56;;;;;;;28.93;27.03;;;24.60;61.70;;;;;;4983057;28;20527;-69
2021/07/18 11:23:32;;;;;;;29.73;27.80;;;24.60;62.10;;;;;;4987110;28;20462;-70
2021/07/18 11:26:11;;;;;;;27.43;25.60;;;24.50;62.60;;;;;;4988107;28;20595;-69
2021/07/18 11:28:50;;;;;;;27.63;25.83;;;24.60;61.80;;;;;;4987526;28;20871;-70
2021/07/18 11:31:40;;;;;;;28.33;26.53;;;24.70;61.00;;;;;;4989235;28;20546;-69
2021/07/18 11:34:10;;;;;;;27.97;26.20;;;24.60;61.30;;;;;;4984952;28;20461;-69
2021/07/18 11:37:00;;;;;;;28.10;26.40;;;24.50;60.90;;;;;;4989546;28;20552;-69
2021/07/18 11:39:28;;;;;;;27.90;26.10;;;24.40;61.40;;;;;;4991192;28;20461;-69
2021/07/18 11:41:56;;;;;;;27.17;25.47;;;24.50;61.10;;;;;;4989568;28;21010;-69
2021/07/18 11:44:28;;;;;;;27.10;25.50;;;24.60;61.70;;;;;;4987034;28;20470;-69
2021/07/18 11:47:00;;;;;;;29.73;27.93;;;24.90;60.40;;;;;;4989101;28;20473;-69
2021/07/18 11:49:36;;;;;;;30.70;28.73;;;24.90;59.90;;;;;;4988473;28;20464;-69
2021/07/18 11:52:05;;;;;;;28.87;27.07;;;24.70;59.60;;;;;;4989423;28;20979;-70
2021/07/18 11:54:32;;;;;;;27.80;26.10;;;24.80;59.60;;;;;;4988453;28;20593;-69
2021/07/18 11:57:00;;;;;;;27.47;25.57;;;25.00;58.60;;;;;;4988508;28;20480;-69
2021/07/18 11:59:29;;;;;;;27.90;26.40;;;25.20;59.00;;;;;;4985849;28;20545;-69
2021/07/18 12:01:58;;;;;;;28.23;26.57;;;25.20;59.10;;;;;;4987905;28;20947;-69
2021/07/18 12:04:27;;;;;;;27.73;26.13;;;25.00;59.30;;;;;;4988508;28;20468;-69
2021/07/18 12:06:55;;;;;;;27.40;25.80;;;25.00;58.50;;;;;;4989419;28;20492;-70
2021/07/18 12:09:25;;;;;;;28.80;27.00;;;25.10;58.50;;;;;;4989792;28;20485;-70
2021/07/18 12:11:54;;;;;;;27.83;26.23;;;25.20;58.80;;;;;;4988797;28;20552;-70
2021/07/18 12:14:22;;;;;;;27.80;26.20;;;25.20;59.40;;;;;;4986350;28;20475;-69
2021/07/18 12:16:53;;;;;;;30.03;28.20;;;25.50;59.10;;;;;;4990613;28;20552;-69
2021/07/18 12:19:27;;;;;;;31.33;29.17;;;25.70;59.20;;;;;;4989733;28;20887;-71
2021/07/18 12:21:56;;;;;;;31.17;29.13;;;25.60;58.00;;;;;;4992323;28;20441;-69
2021/07/18 12:24:28;;;;;;;31.53;29.33;;;25.50;58.30;;;;;;4990630;28;20823;-70
2021/07/18 12:27:05;;;;;;;31.50;29.30;;;25.60;58.10;;;;;;4988103;28;20575;-70
2021/07/18 12:29:35;;;;;;;33.80;31.60;;;25.70;57.70;;;;;;4990520;28;20464;-70
2021/07/18 12:32:03;;;;;;;33.10;30.80;;;25.80;58.60;;;;;;4990843;28;20470;-69
2021/07/18 12:34:34;;;;;;;31.57;29.47;;;26.00;58.20;;;;;;4990681;28;20892;-69